Time;durP1;ratioP1;P1;durP2;ratioP2;P2;SDS_P1;SDS_P2;PMS_P1;PMS_P2;Temp;Humidity;BMP_temperature;BMP_pressure;BME280_temperature;BME280_humidity;BME280_pressure;Samples;Min_cycle;Max_cycle;Signal;HPM_P1;HPM_P2
2022/09/28 00:00:07;;;;;;;;;;;;;;;;;;5069523;28;19945;-58
2022/09/28 00:02:37;;;;;;;;;;;;;;;;;;5064984;28;19961;-58
2022/09/28 00:05:03;;;;;;;;;;;;;;;;;;5068014;28;20324;-58
2022/09/28 00:07:28;;;;;;;;;;;;;;;;;;5070946;28;19924;-58
2022/09/28 00:09:54;;;;;;;;;;;;;;;;;;5074234;28;19968;-58
2022/09/28 00:12:20;;;;;;;;;;;;;;;;;;5065982;28;19920;-58
2022/09/28 00:14:45;;;;;;;;;;;;;;;;;;5072382;28;20237;-58
2022/09/28 00:17:11;;;;;;;;;;;;;;;;;;5067866;28;20387;-58
2022/09/28 00:19:37;;;;;;;;;;;;;;;;;;5067301;28;19960;-59
2022/09/28 00:22:03;;;;;;;;;;;;;;;;;;5074608;28;19916;-58
2022/09/28 00:24:29;;;;;;;;;;;;;;;;;;5067507;28;19916;-58
2022/09/28 00:26:54;;;;;;;;;;;;;;;;;;5075195;28;19916;-58
2022/09/28 00:29:19;;;;;;;;;;;;;;;;;;5067815;28;19975;-58
2022/09/28 00:31:45;;;;;;;;;;;;;;;;;;5064194;28;19928;-58
2022/09/28 00:34:10;;;;;;;;;;;;;;;;;;5074164;28;19923;-58
2022/09/28 00:36:35;;;;;;;;;;;;;;;;;;5083936;28;20019;-58
2022/09/28 00:39:00;;;;;;;;;;;;;;;;;;5079072;28;20009;-58
2022/09/28 00:41:25;;;;;;;;;;;;;;;;;;5073224;28;20006;-58
2022/09/28 00:43:51;;;;;;;;;;;;;;;;;;5076437;28;19943;-58
2022/09/28 00:46:16;;;;;;;;;;;;;;;;;;5095299;28;19970;-58
2022/09/28 00:48:41;;;;;;;;;;;;;;;;;;5077119;28;19921;-58
2022/09/28 00:51:07;;;;;;;;;;;;;;;;;;5079436;28;19916;-57
2022/09/28 00:53:33;;;;;;;;;;;;;;;;;;5073264;28;19969;-58
2022/09/28 00:55:59;;;;;;;;;;;;;;;;;;5074993;28;19928;-58
2022/09/28 00:58:24;;;;;;;;;;;;;;;;;;5076251;28;19919;-58
2022/09/28 01:00:49;;;;;;;;;;;;;;;;;;5069516;28;19923;-58
2022/09/28 01:03:15;;;;;;;;;;;;;;;;;;5073616;28;19994;-58
2022/09/28 01:05:40;;;;;;;;;;;;;;;;;;5071163;28;19920;-59
2022/09/28 01:08:06;;;;;;;;;;;;;;;;;;5071187;28;19920;-58
2022/09/28 01:10:31;;;;;;;;;;;;;;;;;;5088718;28;20451;-58
2022/09/28 01:12:57;;;;;;;;;;;;;;;;;;5069299;28;19923;-59
2022/09/28 01:15:23;;;;;;;;;;;;;;;;;;5085241;28;19928;-58
2022/09/28 01:17:48;;;;;;;;;;;;;;;;;;5067710;28;19923;-58
2022/09/28 01:20:14;;;;;;;;;;;;;;;;;;5071397;28;20592;-59
2022/09/28 01:22:40;;;;;;;;;;;;;;;;;;5079585;28;20552;-59
2022/09/28 01:25:05;;;;;;;;;;;;;;;;;;5071846;28;20441;-58
2022/09/28 01:27:30;;;;;;;;;;;;;;;;;;5076068;28;19956;-59
2022/09/28 01:29:56;;;;;;;;;;;;;;;;;;5069741;28;19927;-59
2022/09/28 01:32:22;;;;;;;;;;;;;;;;;;5077380;28;20372;-59
2022/09/28 01:34:47;;;;;;;;;;;;;;;;;;5087615;28;19926;-59
2022/09/28 01:37:12;;;;;;;;;;;;;;;;;;5067945;28;19928;-58
2022/09/28 01:39:37;;;;;;;;;;;;;;;;;;5074147;28;19920;-58
2022/09/28 01:42:02;;;;;;;;;;;;;;;;;;5086806;28;20062;-58
2022/09/28 01:44:28;;;;;;;;;;;;;;;;;;5074290;28;19916;-58
2022/09/28 01:46:53;;;;;;;;;;;;;;;;;;5077644;28;20391;-58
2022/09/28 01:49:18;;;;;;;;;;;;;;;;;;5068690;28;19916;-58
2022/09/28 01:51:43;;;;;;;;;;;;;;;;;;5086952;28;19916;-58
2022/09/28 01:54:08;;;;;;;;;;;;;;;;;;5087027;28;19920;-58
2022/09/28 01:56:33;;;;;;;;;;;;;;;;;;5087372;28;19931;-58
2022/09/28 01:58:59;;;;;;;;;;;;;;;;;;5076903;28;19939;-59
2022/09/28 02:01:24;;;;;;;;;;;;;;;;;;5068028;28;20324;-58
2022/09/28 02:03:49;;;;;;;;;;;;;;;;;;5075599;28;19924;-58
2022/09/28 02:06:15;;;;;;;;;;;;;;;;;;5067330;28;20007;-58
2022/09/28 02:08:40;;;;;;;;;;;;;;;;;;5069808;28;19916;-58
2022/09/28 02:11:05;;;;;;;;;;;;;;;;;;5077547;28;19923;-57
2022/09/28 02:13:30;;;;;;;;;;;;;;;;;;5073717;28;20373;-58
2022/09/28 02:15:56;;;;;;;;;;;;;;;;;;5077752;28;19952;-58
2022/09/28 02:18:22;;;;;;;;;;;;;;;;;;5073741;28;19940;-58
2022/09/28 02:20:47;;;;;;;;;;;;;;;;;;5069754;28;20444;-59
2022/09/28 02:23:12;;;;;;;;;;;;;;;;;;5091458;28;19921;-58
2022/09/28 02:25:39;;;;;;;;;;;;;;;;;;5072095;28;19995;-58
2022/09/28 02:28:05;;;;;;;;;;;;;;;;;;5079641;28;20058;-58
2022/09/28 02:30:30;;;;;;;;;;;;;;;;;;5073817;28;19923;-58
2022/09/28 02:32:56;;;;;;;;;;;;;;;;;;5077135;28;19916;-58
2022/09/28 02:35:22;;;;;;;;;;;;;;;;;;5075308;28;20008;-58
2022/09/28 02:37:47;;;;;;;;;;;;;;;;;;5073429;28;20339;-59
2022/09/28 02:40:12;;;;;;;;;;;;;;;;;;5079448;28;20014;-58
2022/09/28 02:42:37;;;;;;;;;;;;;;;;;;5077023;28;20325;-59
2022/09/28 02:45:03;;;;;;;;;;;;;;;;;;5078113;28;20370;-58
2022/09/28 02:47:28;;;;;;;;;;;;;;;;;;5082936;28;20011;-58
2022/09/28 02:49:53;;;;;;;;;;;;;;;;;;5079492;28;19916;-58
2022/09/28 02:52:18;;;;;;;;;;;;;;;;;;5074149;28;20401;-58
2022/09/28 02:54:44;;;;;;;;;;;;;;;;;;5072894;28;20209;-58
2022/09/28 02:57:09;;;;;;;;;;;;;;;;;;5072812;28;21493;-58
2022/09/28 02:59:34;;;;;;;;;;;;;;;;;;5080402;28;19942;-58
2022/09/28 03:01:59;;;;;;;;;;;;;;;;;;5068200;28;20445;-58
2022/09/28 03:04:24;;;;;;;;;;;;;;;;;;5076039;28;19916;-56
2022/09/28 03:06:49;;;;;;;;;;;;;;;;;;5069343;28;20483;-58
2022/09/28 03:09:15;;;;;;;;;;;;;;;;;;5072782;28;20203;-57
2022/09/28 03:11:40;;;;;;;;;;;;;;;;;;5090375;28;19916;-57
2022/09/28 03:14:05;;;;;;;;;;;;;;;;;;5066314;28;20361;-57
2022/09/28 03:16:52;;;;;;;;;;;;;;;;;;5077404;28;19935;-57
2022/09/28 03:19:18;;;;;;;;;;;;;;;;;;5054485;28;19915;-56
2022/09/28 03:21:43;;;;;;;;;;;;;;;;;;5067562;28;19923;-57
2022/09/28 03:24:09;;;;;;;;;;;;;;;;;;5079952;28;19916;-57
2022/09/28 03:26:35;;;;;;;;;;;;;;;;;;5086340;28;19916;-57
2022/09/28 03:29:00;;;;;;;;;;;;;;;;;;5088033;28;19923;-60
2022/09/28 03:31:25;;;;;;;;;;;;;;;;;;5073423;28;19927;-57
2022/09/28 03:33:51;;;;;;;;;;;;;;;;;;5071347;28;19916;-57
2022/09/28 03:36:16;;;;;;;;;;;;;;;;;;5079173;28;19931;-59
2022/09/28 03:38:41;;;;;;;;;;;;;;;;;;5069888;28;20018;-59
2022/09/28 03:41:06;;;;;;;;;;;;;;;;;;5076637;28;19920;-59
2022/09/28 03:43:34;;;;;;;;;;;;;;;;;;5075152;28;19921;-57
2022/09/28 03:46:01;;;;;;;;;;;;;;;;;;5075494;28;20015;-59
2022/09/28 03:48:27;;;;;;;;;;;;;;;;;;5092480;28;19969;-59
2022/09/28 03:50:53;;;;;;;;;;;;;;;;;;5070113;28;19920;-59
2022/09/28 03:53:18;;;;;;;;;;;;;;;;;;5078575;28;19912;-58
2022/09/28 03:55:44;;;;;;;;;;;;;;;;;;5073911;28;19977;-58
2022/09/28 03:58:09;;;;;;;;;;;;;;;;;;5083304;28;19920;-59
2022/09/28 04:00:34;;;;;;;;;;;;;;;;;;5077329;28;19938;-59
2022/09/28 04:02:59;;;;;;;;;;;;;;;;;;5068202;28;20368;-59
2022/09/28 04:05:25;;;;;;;;;;;;;;;;;;5078251;28;20356;-59
2022/09/28 04:07:52;;;;;;;;;;;;;;;;;;5071850;28;19946;-60
2022/09/28 04:10:17;;;;;;;;;;;;;;;;;;5087384;28;19921;-59
2022/09/28 04:12:44;;;;;;;;;;;;;;;;;;5073795;28;19923;-59
2022/09/28 04:15:09;;;;;;;;;;;;;;;;;;5074827;28;19920;-60
2022/09/28 04:17:35;;;;;;;;;;;;;;;;;;5082365;28;19922;-60
2022/09/28 04:20:02;;;;;;;;;;;;;;;;;;5091973;28;19926;-59
2022/09/28 04:22:41;;;;;;;;;;;;;;;;;;5071847;28;20456;-59
2022/09/28 04:25:09;;;;;;;;;;;;;;;;;;5077054;28;19920;-59
2022/09/28 04:30:18;;;;;;;;;;;;;;;;;;5072538;28;20436;-59
2022/09/28 04:32:44;;;;;;;;;;;;;;;;;;5074120;28;20287;-59
2022/09/28 04:35:09;;;;;;;;;;;;;;;;;;5070729;28;19951;-60
2022/09/28 04:37:34;;;;;;;;;;;;;;;;;;5072505;28;20031;-60
2022/09/28 04:40:00;;;;;;;;;;;;;;;;;;5069380;28;19923;-60
2022/09/28 04:42:25;;;;;;;;;;;;;;;;;;5083929;28;19919;-59
2022/09/28 04:44:50;;;;;;;;;;;;;;;;;;5073767;28;19920;-60
2022/09/28 04:47:16;;;;;;;;;;;;;;;;;;5069734;28;20417;-60
2022/09/28 04:49:57;;;;;;;;;;;;;;;;;;5067358;28;19916;-60
2022/09/28 04:52:34;;;;;;;;;;;;;;;;;;5074776;28;19920;-59
2022/09/28 04:54:59;;;;;;;;;;;;;;;;;;5082669;28;19923;-60
2022/09/28 04:57:24;;;;;;;;;;;;;;;;;;5073831;28;19916;-59
2022/09/28 04:59:49;;;;;;;;;;;;;;;;;;5065184;28;19969;-59
2022/09/28 05:02:16;;;;;;;;;;;;;;;;;;5065382;28;20482;-60
2022/09/28 05:05:10;;;;;;;;;;;;;;;;;;5069970;28;20046;-59
2022/09/28 05:07:54;;;;;;;;;;;;;;;;;;5063036;28;19931;-59
2022/09/28 05:10:19;;;;;;;;;;;;;;;;;;5064565;28;21248;-59
2022/09/28 05:12:45;;;;;;;;;;;;;;;;;;5084243;27;19920;-59
2022/09/28 05:15:10;;;;;;;;;;;;;;;;;;5080360;27;19923;-59
2022/09/28 05:17:35;;;;;;;;;;;;;;;;;;5078932;28;19916;-60
2022/09/28 05:20:08;;;;;;;;;;;;;;;;;;5064274;28;19920;-58
2022/09/28 05:22:33;;;;;;;;;;;;;;;;;;5067604;28;19920;-59
2022/09/28 05:24:59;;;;;;;;;;;;;;;;;;5073270;28;19916;-60
2022/09/28 05:27:25;;;;;;;;;;;;;;;;;;5068232;28;20012;-59
2022/09/28 05:29:58;;;;;;;;;;;;;;;;;;5073369;28;19922;-59
2022/09/28 05:32:45;;;;;;;;;;;;;;;;;;5074367;28;19924;-59
2022/09/28 05:35:26;;;;;;;;;;;;;;;;;;5067049;28;19933;-59
2022/09/28 05:37:53;;;;;;;;;;;;;;;;;;5072794;28;19916;-59
2022/09/28 05:40:19;;;;;;;;;;;;;;;;;;5063924;28;19977;-58
2022/09/28 05:42:46;;;;;;;;;;;;;;;;;;5057190;28;19960;-61
2022/09/28 05:45:11;;;;;;;;;;;;;;;;;;5071017;28;20004;-60
2022/09/28 05:47:39;;;;;;;;;;;;;;;;;;5082217;28;20303;-60
2022/09/28 05:50:05;;;;;;;;;;;;;;;;;;5065220;28;19917;-59
2022/09/28 05:52:30;;;;;;;;;;;;;;;;;;5088515;28;20232;-59
2022/09/28 05:54:55;;;;;;;;;;;;;;;;;;5073206;28;19955;-59
2022/09/28 05:57:21;;;;;;;;;;;;;;;;;;5072220;28;20637;-59
2022/09/28 05:59:46;;;;;;;;;;;;;;;;;;5074660;28;19916;-58
2022/09/28 06:02:12;;;;;;;;;;;;;;;;;;5074862;28;19916;-59
2022/09/28 06:04:37;;;;;;;;;;;;;;;;;;5074097;28;19916;-59
2022/09/28 06:07:02;;;;;;;;;;;;;;;;;;5074561;28;20023;-60
2022/09/28 06:09:27;;;;;;;;;;;;;;;;;;5072239;28;20288;-59
2022/09/28 06:11:52;;;;;;;;;;;;;;;;;;5074264;28;19920;-59
2022/09/28 06:14:40;;;;;;;;;;;;;;;;;;5075848;28;19916;-59
2022/09/28 06:17:05;;;;;;;;;;;;;;;;;;5074940;28;19924;-59
2022/09/28 06:19:31;;;;;;;;;;;;;;;;;;5071425;28;20026;-59
2022/09/28 06:22:25;;;;;;;;;;;;;;;;;;5062189;28;19943;-59
2022/09/28 06:25:09;;;;;;;;;;;;;;;;;;5071781;28;19938;-60
2022/09/28 06:27:34;;;;;;;;;;;;;;;;;;5073455;28;19916;-59
2022/09/28 06:30:01;;;;;;;;;;;;;;;;;;5087945;28;20697;-59
2022/09/28 06:32:28;;;;;;;;;;;;;;;;;;5089572;28;19916;-59
2022/09/28 06:34:53;;;;;;;;;;;;;;;;;;5071859;28;19921;-59
2022/09/28 06:37:18;;;;;;;;;;;;;;;;;;5072309;28;19939;-59
2022/09/28 06:39:44;;;;;;;;;;;;;;;;;;5088770;28;19916;-59
2022/09/28 06:42:09;;;;;;;;;;;;;;;;;;5075003;28;19922;-59
2022/09/28 06:44:58;;;;;;;;;;;;;;;;;;5073756;28;19922;-60
2022/09/28 06:47:43;;;;;;;;;;;;;;;;;;5051204;28;19924;-59
2022/09/28 06:50:21;;;;;;;;;;;;;;;;;;5088656;28;20504;-59
2022/09/28 06:53:09;;;;;;;;;;;;;;;;;;5092569;28;19952;-59
2022/09/28 06:55:49;;;;;;;;;;;;;;;;;;5074188;28;19924;-59
2022/09/28 06:58:15;;;;;;;;;;;;;;;;;;5081555;28;19917;-59
2022/09/28 07:00:41;;;;;;;;;;;;;;;;;;5079530;28;20011;-59
2022/09/28 07:03:06;;;;;;;;;;;;;;;;;;5081793;28;19918;-59
2022/09/28 07:05:50;;;;;;;;;;;;;;;;;;5078675;28;19938;-59
2022/09/28 07:08:30;;;;;;;;;;;;;;;;;;5074556;28;20412;-58
2022/09/28 07:11:05;;;;;;;;;;;;;;;;;;5073311;28;19969;-59
2022/09/28 07:13:42;;;;;;;;;;;;;;;;;;5083230;28;19916;-59
2022/09/28 07:16:08;;;;;;;;;;;;;;;;;;5090837;28;19935;-59
2022/09/28 07:18:34;;;;;;;;;;;;;;;;;;5076720;28;19927;-59
2022/09/28 07:21:01;;;;;;;;;;;;;;;;;;5075324;28;20372;-59
2022/09/28 07:23:28;;;;;;;;;;;;;;;;;;5077339;28;20016;-60
2022/09/28 07:26:12;;;;;;;;;;;;;;;;;;5077666;28;19923;-58
2022/09/28 07:28:56;;;;;;;;;;;;;;;;;;5074879;28;19923;-59
2022/09/28 07:31:36;;;;;;;;;;;;;;;;;;5077346;28;19922;-59
2022/09/28 07:34:22;;;;;;;;;;;;;;;;;;5075746;28;19916;-59
2022/09/28 07:37:10;;;;;;;;;;;;;;;;;;5078005;28;20001;-58
2022/09/28 07:41:10;;;;;;;;;;;;;;;;;;5092579;27;20585;-58
2022/09/28 07:42:20;;;;;;;;;;;;;;;;;;5075241;28;20483;-58
2022/09/28 07:44:46;;;;;;;;;;;;;;;;;;5092107;28;19923;-58
2022/09/28 07:47:12;;;;;;;;;;;;;;;;;;5076868;28;19912;-59
2022/09/28 07:49:57;;;;;;;;;;;;;;;;;;5066176;28;20289;-59
2022/09/28 07:52:36;;;;;;;;;;;;;;;;;;5093871;28;20185;-58
2022/09/28 07:55:24;;;;;;;;;;;;;;;;;;5072065;28;19922;-59
2022/09/28 07:58:08;;;;;;;;;;;;;;;;;;5076644;28;19966;-58
2022/09/28 08:00:58;;;;;;;;;;;;;;;;;;5075903;28;19923;-58
2022/09/28 08:03:24;;;;;;;;;;;;;;;;;;5090472;28;19952;-59
2022/09/28 08:05:50;;;;;;;;;;;;;;;;;;5074345;28;20306;-58
2022/09/28 08:08:16;;;;;;;;;;;;;;;;;;5074013;28;20368;-58
2022/09/28 08:10:41;;;;;;;;;;;;;;;;;;5079129;28;20292;-59
2022/09/28 08:13:42;;;;;;;;;;;;;;;;;;5076159;28;19916;-59
2022/09/28 08:16:24;;;;;;;;;;;;;;;;;;5071918;28;20293;-59
2022/09/28 08:18:58;;;;;;;;;;;;;;;;;;5081728;28;19916;-59
2022/09/28 08:24:07;;;;;;;;;;;;;;;;;;5090631;28;19916;-59
2022/09/28 08:26:33;;;;;;;;;;;;;;;;;;5071847;28;19952;-58
2022/09/28 08:28:58;;;;;;;;;;;;;;;;;;5090166;28;20357;-59
2022/09/28 08:31:52;;;;;;;;;;;;;;;;;;5072305;28;19916;-59
2022/09/28 08:34:38;;;;;;;;;;;;;;;;;;5075671;28;20359;-59
2022/09/28 08:37:28;;;;;;;;;;;;;;;;;;5074698;28;20011;-59
2022/09/28 08:40:12;;;;;;;;;;;;;;;;;;5074643;28;19922;-58
2022/09/28 08:43:03;;;;;;;;;;;;;;;;;;5078788;28;19916;-57
2022/09/28 08:45:58;;;;;;;;;;;;;;;;;;5075358;28;19916;-58
2022/09/28 08:48:53;;;;;;;;;;;;;;;;;;5069444;28;19916;-58
2022/09/28 08:51:25;;;;;;;;;;;;;;;;;;5079607;28;19973;-58
2022/09/28 08:54:03;;;;;;;;;;;;;;;;;;5087788;28;19916;-59
2022/09/28 08:56:33;;;;;;;;;;;;;;;;;;5080104;28;19924;-59
2022/09/28 08:58:59;;;;;;;;;;;;;;;;;;5074146;28;19924;-59
2022/09/28 09:01:24;;;;;;;;;;;;;;;;;;5077134;28;19932;-58
2022/09/28 09:03:49;;;;;;;;;;;;;;;;;;5071173;28;19970;-59
2022/09/28 09:06:28;;;;;;;;;;;;;;;;;;5071839;28;20440;-59
2022/09/28 09:08:56;;;;;;;;;;;;;;;;;;5078759;28;20385;-59
2022/09/28 09:11:22;;;;;;;;;;;;;;;;;;5080246;28;19916;-58
2022/09/28 09:13:48;;;;;;;;;;;;;;;;;;5074626;28;19970;-59
2022/09/28 09:16:17;;;;;;;;;;;;;;;;;;5070507;28;19924;-59
2022/09/28 09:19:01;;;;;;;;;;;;;;;;;;5073844;28;20442;-59
2022/09/28 09:21:38;;;;;;;;;;;;;;;;;;5091055;28;19977;-59
2022/09/28 09:24:04;;;;;;;;;;;;;;;;;;5075015;28;19924;-58
2022/09/28 09:26:29;;;;;;;;;;;;;;;;;;5090645;28;19952;-57
2022/09/28 09:28:55;;;;;;;;;;;;;;;;;;5072961;28;19999;-57
2022/09/28 09:31:25;;;;;;;;;;;;;;;;;;5072078;28;19916;-58
2022/09/28 09:33:52;;;;;;;;;;;;;;;;;;5072703;28;19916;-58
2022/09/28 09:36:38;;;;;;;;;;;;;;;;;;5073274;28;19963;-57
2022/09/28 09:39:38;;;;;;;;;;;;;;;;;;5065431;28;19916;-59
2022/09/28 09:42:25;;;;;;;;;;;;;;;;;;5074881;28;20287;-58
2022/09/28 09:45:09;;;;;;;;;;;;;;;;;;5072952;28;20471;-57
2022/09/28 09:48:13;;;;;;;;;;;;;;;;;;5033497;28;20038;-58
2022/09/28 09:50:38;;;;;;;;;;;;;;;;;;5032646;28;20110;-58
2022/09/28 09:53:04;;;;;;;;;;;;;;;;;;5055559;28;19956;-58
2022/09/28 09:55:29;;;;;;;;;;;;;;;;;;5089111;28;20642;-58
2022/09/28 09:58:10;;;;;;;;;;;;;;;;;;5078112;28;19923;-58
2022/09/28 10:00:42;;;;;;;;;;;;;;;;;;5078895;28;20259;-58
2022/09/28 10:03:17;;;;;;;;;;;;;;;;;;5085127;28;20292;-58
2022/09/28 10:05:42;;;;;;;;;;;;;;;;;;5086302;28;19916;-58
2022/09/28 10:08:07;;;;;;;;;;;;;;;;;;5078688;28;20337;-58
2022/09/28 10:10:34;;;;;;;;;;;;;;;;;;5071600;28;19956;-58
2022/09/28 10:13:05;;;;;;;;;;;;;;;;;;5085335;28;19931;-58
2022/09/28 10:15:31;;;;;;;;;;;;;;;;;;5089434;28;19912;-59
2022/09/28 10:18:19;;;;;;;;;;;;;;;;;;5067419;28;19923;-58
2022/09/28 10:21:03;;;;;;;;;;;;;;;;;;5072922;28;19939;-59
2022/09/28 10:23:55;;;;;;;;;;;;;;;;;;5071761;28;19916;-58
2022/09/28 10:26:21;;;;;;;;;;;;;;;;;;5075357;28;20258;-58
2022/09/28 10:28:47;;;;;;;;;;;;;;;;;;5093693;28;19961;-58
2022/09/28 10:31:12;;;;;;;;;;;;;;;;;;5078849;28;20414;-58
2022/09/28 10:33:38;;;;;;;;;;;;;;;;;;5092723;28;19916;-58
2022/09/28 10:36:03;;;;;;;;;;;;;;;;;;5074624;28;19974;-58
2022/09/28 10:38:28;;;;;;;;;;;;;;;;;;5094488;28;19916;-58
2022/09/28 10:41:05;;;;;;;;;;;;;;;;;;5078044;28;19925;-58
2022/09/28 10:43:42;;;;;;;;;;;;;;;;;;5082461;28;19916;-59
2022/09/28 10:46:10;;;;;;;;;;;;;;;;;;5079116;28;19935;-57
2022/09/28 10:48:36;;;;;;;;;;;;;;;;;;5081100;28;19916;-58
2022/09/28 10:51:01;;;;;;;;;;;;;;;;;;5078035;28;19963;-59
2022/09/28 10:53:27;;;;;;;;;;;;;;;;;;5081999;28;19919;-59
2022/09/28 10:56:01;;;;;;;;;;;;;;;;;;5079495;28;19924;-58
2022/09/28 10:58:26;;;;;;;;;;;;;;;;;;5080736;28;19916;-58
2022/09/28 11:00:51;;;;;;;;;;;;;;;;;;5083288;28;19952;-58
2022/09/28 11:03:19;;;;;;;;;;;;;;;;;;5092188;28;20532;-58
2022/09/28 11:05:44;;;;;;;;;;;;;;;;;;5091985;28;20061;-59
2022/09/28 11:08:10;;;;;;;;;;;;;;;;;;5083332;28;19920;-59
2022/09/28 11:10:43;;;;;;;;;;;;;;;;;;5091767;28;20305;-59
2022/09/28 11:13:11;;;;;;;;;;;;;;;;;;5093666;28;20400;-59
2022/09/28 11:15:40;;;;;;;;;;;;;;;;;;5091921;28;19928;-59
2022/09/28 11:18:05;;;;;;;;;;;;;;;;;;5076966;28;19925;-59
2022/09/28 11:20:30;;;;;;;;;;;;;;;;;;5081662;28;19916;-59
2022/09/28 11:22:58;;;;;;;;;;;;;;;;;;5092543;28;19916;-59
2022/09/28 11:25:26;;;;;;;;;;;;;;;;;;5093608;28;19916;-59
2022/09/28 11:27:51;;;;;;;;;;;;;;;;;;5076976;28;19965;-59
2022/09/28 11:30:16;;;;;;;;;;;;;;;;;;5076105;28;19924;-59
2022/09/28 11:32:57;;;;;;;;;;;;;;;;;;5075815;28;19994;-59
2022/09/28 11:35:42;;;;;;;;;;;;;;;;;;5074869;28;20444;-59
2022/09/28 11:38:07;;;;;;;;;;;;;;;;;;5081597;28;19970;-59
2022/09/28 11:40:52;;;;;;;;;;;;;;;;;;5075694;28;19923;-60
2022/09/28 11:43:18;;;;;;;;;;;;;;;;;;5090674;28;20567;-60
2022/09/28 11:45:43;;;;;;;;;;;;;;;;;;5082178;28;19916;-60
2022/09/28 11:48:08;;;;;;;;;;;;;;;;;;5079836;28;19920;-60
2022/09/28 11:50:34;;;;;;;;;;;;;;;;;;5081829;28;19920;-59
2022/09/28 11:53:00;;;;;;;;;;;;;;;;;;5076987;28;19916;-59
2022/09/28 11:55:25;;;;;;;;;;;;;;;;;;5073422;28;19985;-59
2022/09/28 11:57:50;;;;;;;;;;;;;;;;;;5081880;28;19945;-60
2022/09/28 12:00:16;;;;;;;;;;;;;;;;;;5081612;28;19912;-59
2022/09/28 12:02:47;;;;;;;;;;;;;;;;;;5074637;28;20347;-59
2022/09/28 12:05:13;;;;;;;;;;;;;;;;;;5092825;28;19923;-59
2022/09/28 12:07:38;;;;;;;;;;;;;;;;;;5075362;28;20399;-59
2022/09/28 12:10:08;;;;;;;;;;;;;;;;;;5074599;28;20011;-59
2022/09/28 12:12:34;;;;;;;;;;;;;;;;;;5082000;28;19973;-59
2022/09/28 12:15:03;;;;;;;;;;;;;;;;;;5080250;28;19923;-60
2022/09/28 12:17:28;;;;;;;;;;;;;;;;;;5076532;28;19924;-60
2022/09/28 12:19:54;;;;;;;;;;;;;;;;;;5076500;28;20538;-59
2022/09/28 12:22:19;;;;;;;;;;;;;;;;;;5076295;28;19958;-60
2022/09/28 12:24:44;;;;;;;;;;;;;;;;;;5077039;28;19920;-59
2022/09/28 12:27:10;;;;;;;;;;;;;;;;;;5075348;28;20962;-60
2022/09/28 12:29:35;;;;;;;;;;;;;;;;;;5075001;28;19924;-60
2022/09/28 12:32:00;;;;;;;;;;;;;;;;;;5071702;28;19917;-60
2022/09/28 12:34:25;;;;;;;;;;;;;;;;;;5073730;28;19963;-60
2022/09/28 12:36:50;;;;;;;;;;;;;;;;;;5078031;28;20363;-59
2022/09/28 12:39:15;;;;;;;;;;;;;;;;;;5074559;28;19956;-60
2022/09/28 12:41:41;;;;;;;;;;;;;;;;;;5077095;28;20851;-59
2022/09/28 12:44:06;;;;;;;;;;;;;;;;;;5078222;28;19916;-58
2022/09/28 12:46:31;;;;;;;;;;;;;;;;;;5077788;28;20270;-59
2022/09/28 12:48:56;;;;;;;;;;;;;;;;;;5076046;28;19963;-59
2022/09/28 12:51:22;;;;;;;;;;;;;;;;;;5077834;28;19922;-59
2022/09/28 12:53:47;;;;;;;;;;;;;;;;;;5078797;28;19912;-59
2022/09/28 12:56:13;;;;;;;;;;;;;;;;;;5078642;28;20544;-59
2022/09/28 12:58:38;;;;;;;;;;;;;;;;;;5077124;28;19912;-59
2022/09/28 13:01:04;;;;;;;;;;;;;;;;;;5069713;28;20947;-59
2022/09/28 13:03:30;;;;;;;;;;;;;;;;;;5077716;28;19948;-59
2022/09/28 13:05:55;;;;;;;;;;;;;;;;;;5074738;28;19935;-59
2022/09/28 13:08:20;;;;;;;;;;;;;;;;;;5076920;28;20305;-59
2022/09/28 13:10:46;;;;;;;;;;;;;;;;;;5090988;28;19912;-59
2022/09/28 13:13:11;;;;;;;;;;;;;;;;;;5077705;28;19912;-59
2022/09/28 13:15:36;;;;;;;;;;;;;;;;;;5082035;28;19999;-59
2022/09/28 13:18:01;;;;;;;;;;;;;;;;;;5077994;28;19912;-59
2022/09/28 13:20:29;;;;;;;;;;;;;;;;;;5078777;28;19916;-59
2022/09/28 13:22:55;;;;;;;;;;;;;;;;;;5079786;28;20050;-59
2022/09/28 13:25:20;;;;;;;;;;;;;;;;;;5079560;28;20039;-59
2022/09/28 13:27:46;;;;;;;;;;;;;;;;;;5084436;28;20415;-60
2022/09/28 13:30:11;;;;;;;;;;;;;;;;;;5073526;28;19916;-60
2022/09/28 13:32:37;;;;;;;;;;;;;;;;;;5077457;28;19923;-60
2022/09/28 13:35:04;;;;;;;;;;;;;;;;;;5076604;28;20436;-60
2022/09/28 13:37:29;;;;;;;;;;;;;;;;;;5081753;28;20309;-60
2022/09/28 13:39:55;;;;;;;;;;;;;;;;;;5078332;28;19920;-59
2022/09/28 13:42:20;;;;;;;;;;;;;;;;;;5091616;28;20014;-60
2022/09/28 13:44:46;;;;;;;;;;;;;;;;;;5074920;28;20007;-59
2022/09/28 13:47:11;;;;;;;;;;;;;;;;;;5077240;28;19943;-59
2022/09/28 13:49:36;;;;;;;;;;;;;;;;;;5071877;28;19966;-59
2022/09/28 13:52:01;;;;;;;;;;;;;;;;;;5074884;28;19916;-59
2022/09/28 13:54:28;;;;;;;;;;;;;;;;;;5077374;28;20276;-59
2022/09/28 13:56:54;;;;;;;;;;;;;;;;;;5075628;28;19924;-60
2022/09/28 13:59:19;;;;;;;;;;;;;;;;;;5069662;28;19924;-60
2022/09/28 14:01:44;;;;;;;;;;;;;;;;;;5076179;28;19933;-60
2022/09/28 14:04:09;;;;;;;;;;;;;;;;;;5078550;28;20390;-60
2022/09/28 14:06:34;;;;;;;;;;;;;;;;;;5080844;28;19931;-60
2022/09/28 14:09:00;;;;;;;;;;;;;;;;;;5073242;28;19923;-60
2022/09/28 14:11:25;;;;;;;;;;;;;;;;;;5077720;28;19974;-60
2022/09/28 14:13:50;;;;;;;;;;;;;;;;;;5078241;28;19916;-60
2022/09/28 14:16:15;;;;;;;;;;;;;;;;;;5081118;28;19924;-60
2022/09/28 14:18:41;;;;;;;;;;;;;;;;;;5079041;28;19923;-60
2022/09/28 14:21:07;;;;;;;;;;;;;;;;;;5084763;28;19930;-60
2022/09/28 14:23:32;;;;;;;;;;;;;;;;;;5082026;28;20329;-60
2022/09/28 14:25:57;;;;;;;;;;;;;;;;;;5086533;28;20322;-60
2022/09/28 14:28:22;;;;;;;;;;;;;;;;;;5082075;28;19928;-60
2022/09/28 14:30:48;;;;;;;;;;;;;;;;;;5086934;28;19916;-60
2022/09/28 14:33:13;;;;;;;;;;;;;;;;;;5081513;28;19920;-60
2022/09/28 14:35:38;;;;;;;;;;;;;;;;;;5073777;28;19917;-60
2022/09/28 14:43:31;;;;;;;;;;;;;;;;;;5078769;28;19920;-60
2022/09/28 14:45:56;;;;;;;;;;;;;;;;;;5081064;28;19916;-60
2022/09/28 14:48:22;;;;;;;;;;;;;;;;;;5079565;28;19995;-60
2022/09/28 14:50:48;;;;;;;;;;;;;;;;;;5079389;28;19916;-60
2022/09/28 14:53:14;;;;;;;;;;;;;;;;;;5086637;28;19956;-61
2022/09/28 14:55:39;;;;;;;;;;;;;;;;;;5080073;28;20425;-61
2022/09/28 14:58:04;;;;;;;;;;;;;;;;;;5082759;28;19920;-61
2022/09/28 15:00:30;;;;;;;;;;;;;;;;;;5077530;28;19923;-60
2022/09/28 15:02:56;;;;;;;;;;;;;;;;;;5084364;28;19932;-60
2022/09/28 15:05:21;;;;;;;;;;;;;;;;;;5078250;28;19916;-60
2022/09/28 15:07:46;;;;;;;;;;;;;;;;;;5078192;28;19920;-61
2022/09/28 15:10:12;;;;;;;;;;;;;;;;;;5079524;28;19913;-61
2022/09/28 15:12:37;;;;;;;;;;;;;;;;;;5078949;28;20125;-61
2022/09/28 15:15:02;;;;;;;;;;;;;;;;;;5078381;28;20046;-61
2022/09/28 15:17:27;;;;;;;;;;;;;;;;;;5081431;28;19931;-61
2022/09/28 15:19:52;;;;;;;;;;;;;;;;;;5075044;28;20442;-61
2022/09/28 15:22:18;;;;;;;;;;;;;;;;;;5079897;28;19923;-61
2022/09/28 15:24:44;;;;;;;;;;;;;;;;;;5078125;28;19923;-61
2022/09/28 15:27:09;;;;;;;;;;;;;;;;;;5080631;28;19920;-61
2022/09/28 15:29:34;;;;;;;;;;;;;;;;;;5083317;28;19920;-61
2022/09/28 15:31:59;;;;;;;;;;;;;;;;;;5081320;28;19916;-62
2022/09/28 15:37:10;;;;;;;;;;;;;;;;;;5076771;28;19931;-62
2022/09/28 15:39:35;;;;;;;;;;;;;;;;;;5096004;23;19928;-85
2022/09/28 15:42:01;;;;;;;;;;;;;;;;;;5039403;28;19904;-84
2022/09/28 15:44:28;;;;;;;;;;;;;;;;;;5050197;28;19909;-85
2022/09/28 15:46:55;;;;;;;;;;;;;;;;;;5038589;28;19905;-85
2022/09/28 15:49:20;;;;;;;;;;;;;;;;;;5029567;28;19905;-84
2022/09/28 15:51:45;;;;;;;;;;;;;;;;;;5034206;28;19979;-86
2022/09/28 15:54:11;;;;;;;;;;;;;;;;;;5002128;28;19906;-85
2022/09/28 15:56:36;;;;;;;;;;;;;;;;;;5036235;28;19917;-86
2022/09/28 15:59:01;;;;;;;;;;;;;;;;;;5017027;28;20468;-86
2022/09/28 16:01:27;;;;;;;;;;;;;;;;;;5021515;28;19996;-85
2022/09/28 16:03:53;;;;;;;;;;;;;;;;;;5054634;28;19916;-86
2022/09/28 16:06:18;;;;;;;;;;;;;;;;;;5054515;28;19908;-85
2022/09/28 16:08:43;;;;;;;;;;;;;;;;;;5055737;28;19913;-86
2022/09/28 16:11:09;;;;;;;;;;;;;;;;;;5055750;28;19999;-86
2022/09/28 16:13:36;;;;;;;;;;;;;;;;;;5055499;28;19967;-86
2022/09/28 16:16:01;;;;;;;;;;;;;;;;;;5035485;28;20026;-87
2022/09/28 16:18:28;;;;;;;;;;;;;;;;;;5045091;28;19920;-86
2022/09/28 16:20:53;;;;;;;;;;;;;;;;;;5035418;28;19909;-86
2022/09/28 16:23:18;;;;;;;;;;;;;;;;;;5035354;28;19905;-85
2022/09/28 16:25:43;;;;;;;;;;;;;;;;;;5035245;28;19968;-85
2022/09/28 16:28:09;;;;;;;;;;;;;;;;;;5016154;28;19935;-85
2022/09/28 16:30:34;;;;;;;;;;;;;;;;;;5017316;28;19916;-85
2022/09/28 16:33:00;;;;;;;;;;;;;;;;;;5035376;28;19910;-84
2022/09/28 16:35:25;;;;;;;;;;;;;;;;;;5018217;28;20321;-85
2022/09/28 16:37:51;;;;;;;;;;;;;;;;;;5023573;28;19917;-84
2022/09/28 16:40:16;;;;;;;;;;;;;;;;;;5037055;28;19936;-85
2022/09/28 16:42:41;;;;;;;;;;;;;;;;;;5037863;28;19962;-85
2022/09/28 16:45:07;;;;;;;;;;;;;;;;;;5036314;28;19912;-86
2022/09/28 16:47:34;;;;;;;;;;;;;;;;;;5026198;28;19909;-86
2022/09/28 16:50:01;;;;;;;;;;;;;;;;;;4998856;28;19924;-86
2022/09/28 16:55:19;;;;;;;;;;;;;;;;;;5006210;28;20418;-86
2022/09/28 16:57:45;;;;;;;;;;;;;;;;;;5003346;28;19914;-86
2022/09/28 17:00:10;;;;;;;;;;;;;;;;;;5016099;28;19920;-86
2022/09/28 17:02:35;;;;;;;;;;;;;;;;;;5015800;28;19905;-86
2022/09/28 17:05:00;;;;;;;;;;;;;;;;;;4998015;28;19963;-87
2022/09/28 17:07:25;;;;;;;;;;;;;;;;;;4997905;28;19905;-86
2022/09/28 17:09:51;;;;;;;;;;;;;;;;;;4997955;28;19910;-86